Impacts METAR Board INFO
IDs:

KGPT - Gulfport-Biloxi Intl, MS, US

Updated at: 1134 UTC 24 Feb 2018
Potential Impact None Slight Moderate High
Time23/23Z 24/00Z 24/01Z 24/02Z 24/03Z 24/04Z 24/05Z 24/06Z 24/07Z 24/08Z 24/09Z 24/10Z 24/11Z
VIS0.75 2.5 10 7 10 10 10 1.75 7 9 10 10 9
CIG6 60 60 60 -- 45 20 22 20 65 70 24 75
CoverOVCOVCOVCOVCSCTBKNOVCOVCOVCOVCOVCOVCOVC
FltCatLIFRIFRVFRVFRVFRVFRMVFRIFRMVFRVFRVFRMVFRVFR
WX+RA BRRA BR-RA-RA------+RA BR----------
WDir190170150130150160160170160170150160160
WSpd6 9 10 14 8 8 5 5 6 6 6 6 7
WGst-- -- -- -- -- -- -- -- -- -- -- -- --
Raw hourly METARs
KGPT 232253Z 19006KT 3/4SM +RA BR BKN006 OVC021 22/21 A3020 RMK AO2 SLP226 P0063 T02170211 RVRNO
KGPT 232353Z 17009KT 2 1/2SM RA BR BKN060 OVC075 22/21 A3020 RMK AO2 SLP226 P0008 60076 T02170211 10256 20217 55003
KGPT 240053Z 15010KT 10SM -RA BKN060 OVC085 22/21 A3019 RMK AO2 SLP224 P0005 T02170206
KGPT 240153Z 13014KT 7SM -RA BKN060 OVC080 22/21 A3019 RMK AO2 RAE09B34 SLP222 P0001 T02170206
KGPT 240253Z 15008KT 10SM FEW028 SCT120 22/20 A3019 RMK AO2 RAE0158 SLP223 P0000 60006 T02170200 55004
KGPT 240353Z 16008KT 10SM SCT035 BKN045 BKN120 22/20 A3018 RMK AO2 SLP220 T02170200
KGPT 240453Z AUTO 16005KT 10SM OVC020 22/21 A3018 RMK AO2 SLP217 T02170206
KGPT 240602Z AUTO 17005KT 1 3/4SM +RA BR SCT015 BKN022 OVC037 22/21 A3016 RMK AO2 P0010 T02170211
KGPT 240653Z AUTO 16006KT 7SM SCT009 BKN020 OVC050 22/22 A3015 RMK AO2 RAE41 SLP209 P0013 T02220217
KGPT 240753Z AUTO 17006KT 9SM BKN065 OVC085 22/21 A3013 RMK AO2 SLP203 T02220211
KGPT 240853Z AUTO 15006KT 10SM SCT024 BKN070 OVC085 22/21 A3011 RMK AO2 SLP197 60013 T02220211 58015
KGPT 241000Z AUTO 16006KT 10SM SCT013 BKN024 OVC033 22/21 A3010 RMK AO2 RAE00 P0000 T02220211
KGPT 241053Z AUTO 16007KT 9SM FEW015 SCT038 OVC075 22/21 A3010 RMK AO2 RAE00 SLP192 P0000 T02220211